sensor_id;sensor_type;location;lat;lon;timestamp;P1;durP1;ratioP1;P2;durP2;ratioP2
71572;SDS011;59408;51.032;9.410;2022-08-01T00:00:47;5.23;;;2.67;;
71572;SDS011;59408;51.032;9.410;2022-08-01T00:03:13;7.22;;;3.08;;
71572;SDS011;59408;51.032;9.410;2022-08-01T00:05:41;6.40;;;2.90;;
71572;SDS011;59408;51.032;9.410;2022-08-01T00:08:08;5.50;;;2.80;;
71572;SDS011;59408;51.032;9.410;2022-08-01T00:10:35;5.80;;;2.90;;
71572;SDS011;59408;51.032;9.410;2022-08-01T00:13:03;6.20;;;2.80;;
71572;SDS011;59408;51.032;9.410;2022-08-01T00:15:29;5.90;;;3.30;;
71572;SDS011;59408;51.032;9.410;2022-08-01T00:17:56;6.18;;;2.90;;
71572;SDS011;59408;51.032;9.410;2022-08-01T00:20:23;5.82;;;3.08;;
71572;SDS011;59408;51.032;9.410;2022-08-01T00:22:51;5.60;;;3.13;;
71572;SDS011;59408;51.032;9.410;2022-08-01T00:25:17;6.43;;;3.00;;
71572;SDS011;59408;51.032;9.410;2022-08-01T00:27:44;5.30;;;2.90;;
71572;SDS011;59408;51.032;9.410;2022-08-01T00:30:12;5.90;;;3.40;;
71572;SDS011;59408;51.032;9.410;2022-08-01T00:32:40;6.15;;;3.38;;
71572;SDS011;59408;51.032;9.410;2022-08-01T00:35:07;6.95;;;3.42;;
71572;SDS011;59408;51.032;9.410;2022-08-01T00:37:34;5.85;;;3.38;;
71572;SDS011;59408;51.032;9.410;2022-08-01T00:40:02;6.40;;;3.85;;
71572;SDS011;59408;51.032;9.410;2022-08-01T00:42:29;7.07;;;3.50;;
71572;SDS011;59408;51.032;9.410;2022-08-01T00:44:55;6.73;;;3.50;;
71572;SDS011;59408;51.032;9.410;2022-08-01T00:47:22;6.30;;;3.20;;
71572;SDS011;59408;51.032;9.410;2022-08-01T00:49:49;6.95;;;3.22;;
71572;SDS011;59408;51.032;9.410;2022-08-01T00:52:15;5.50;;;2.72;;
71572;SDS011;59408;51.032;9.410;2022-08-01T00:54:42;5.70;;;2.50;;
71572;SDS011;59408;51.032;9.410;2022-08-01T00:57:11;5.05;;;2.30;;
71572;SDS011;59408;51.032;9.410;2022-08-01T00:59:40;5.10;;;2.40;;
71572;SDS011;59408;51.032;9.410;2022-08-01T01:02:07;5.13;;;2.50;;
71572;SDS011;59408;51.032;9.410;2022-08-01T01:04:41;5.68;;;2.40;;
71572;SDS011;59408;51.032;9.410;2022-08-01T01:07:09;5.65;;;2.58;;
71572;SDS011;59408;51.032;9.410;2022-08-01T01:09:42;5.28;;;2.75;;
71572;SDS011;59408;51.032;9.410;2022-08-01T01:12:19;6.63;;;3.05;;
71572;SDS011;59408;51.032;9.410;2022-08-01T01:14:53;5.10;;;2.60;;
71572;SDS011;59408;51.032;9.410;2022-08-01T01:17:24;5.83;;;2.80;;
71572;SDS011;59408;51.032;9.410;2022-08-01T01:20:13;6.05;;;2.70;;
71572;SDS011;59408;51.032;9.410;2022-08-01T01:22:47;6.85;;;2.53;;
71572;SDS011;59408;51.032;9.410;2022-08-01T01:25:39;5.47;;;2.63;;
71572;SDS011;59408;51.032;9.410;2022-08-01T01:28:20;5.10;;;2.60;;
71572;SDS011;59408;51.032;9.410;2022-08-01T01:30:57;5.80;;;2.60;;
71572;SDS011;59408;51.032;9.410;2022-08-01T01:33:26;6.87;;;2.80;;
71572;SDS011;59408;51.032;9.410;2022-08-01T01:35:56;6.40;;;2.55;;
71572;SDS011;59408;51.032;9.410;2022-08-01T01:38:26;5.93;;;2.80;;
71572;SDS011;59408;51.032;9.410;2022-08-01T01:40:56;5.82;;;2.90;;
71572;SDS011;59408;51.032;9.410;2022-08-01T01:43:23;7.38;;;3.63;;
71572;SDS011;59408;51.032;9.410;2022-08-01T01:46:00;6.63;;;3.30;;
71572;SDS011;59408;51.032;9.410;2022-08-01T01:48:28;7.13;;;3.13;;
71572;SDS011;59408;51.032;9.410;2022-08-01T01:50:55;6.95;;;3.30;;
71572;SDS011;59408;51.032;9.410;2022-08-01T01:53:23;7.85;;;4.30;;
71572;SDS011;59408;51.032;9.410;2022-08-01T01:55:53;10.43;;;3.97;;
71572;SDS011;59408;51.032;9.410;2022-08-01T01:58:21;7.53;;;4.10;;
71572;SDS011;59408;51.032;9.410;2022-08-01T02:00:50;7.45;;;4.30;;
71572;SDS011;59408;51.032;9.410;2022-08-01T02:03:21;9.33;;;4.33;;
71572;SDS011;59408;51.032;9.410;2022-08-01T02:05:48;9.10;;;4.77;;
71572;SDS011;59408;51.032;9.410;2022-08-01T02:08:17;8.45;;;4.53;;
71572;SDS011;59408;51.032;9.410;2022-08-01T02:10:45;8.80;;;4.88;;
71572;SDS011;59408;51.032;9.410;2022-08-01T02:13:12;10.55;;;4.82;;
71572;SDS011;59408;51.032;9.410;2022-08-01T02:15:39;9.27;;;4.85;;
71572;SDS011;59408;51.032;9.410;2022-08-01T02:18:27;8.50;;;4.82;;
71572;SDS011;59408;51.032;9.410;2022-08-01T02:20:54;8.70;;;4.83;;
71572;SDS011;59408;51.032;9.410;2022-08-01T02:23:23;8.57;;;5.40;;
71572;SDS011;59408;51.032;9.410;2022-08-01T02:25:54;9.98;;;5.05;;
71572;SDS011;59408;51.032;9.410;2022-08-01T02:28:38;9.45;;;5.10;;
71572;SDS011;59408;51.032;9.410;2022-08-01T02:31:09;9.65;;;5.00;;
71572;SDS011;59408;51.032;9.410;2022-08-01T02:33:40;9.18;;;5.28;;
71572;SDS011;59408;51.032;9.410;2022-08-01T02:36:09;8.27;;;5.23;;
71572;SDS011;59408;51.032;9.410;2022-08-01T02:38:58;9.90;;;4.87;;
71572;SDS011;59408;51.032;9.410;2022-08-01T02:41:26;11.07;;;5.25;;
71572;SDS011;59408;51.032;9.410;2022-08-01T02:43:56;8.20;;;5.22;;
71572;SDS011;59408;51.032;9.410;2022-08-01T02:46:28;9.13;;;5.78;;
71572;SDS011;59408;51.032;9.410;2022-08-01T02:49:00;10.20;;;5.35;;
71572;SDS011;59408;51.032;9.410;2022-08-01T02:51:31;10.27;;;5.57;;
71572;SDS011;59408;51.032;9.410;2022-08-01T02:53:59;9.40;;;5.27;;
71572;SDS011;59408;51.032;9.410;2022-08-01T02:56:28;9.35;;;5.45;;
71572;SDS011;59408;51.032;9.410;2022-08-01T02:58:55;8.40;;;5.35;;
71572;SDS011;59408;51.032;9.410;2022-08-01T03:01:23;9.30;;;5.38;;
71572;SDS011;59408;51.032;9.410;2022-08-01T03:03:54;9.68;;;4.95;;
71572;SDS011;59408;51.032;9.410;2022-08-01T03:06:22;9.17;;;5.27;;
71572;SDS011;59408;51.032;9.410;2022-08-01T03:08:50;9.10;;;5.40;;
71572;SDS011;59408;51.032;9.410;2022-08-01T03:11:18;9.82;;;5.47;;
71572;SDS011;59408;51.032;9.410;2022-08-01T03:13:46;8.43;;;5.30;;
71572;SDS011;59408;51.032;9.410;2022-08-01T03:16:16;8.95;;;5.03;;
71572;SDS011;59408;51.032;9.410;2022-08-01T03:18:43;9.43;;;5.45;;
71572;SDS011;59408;51.032;9.410;2022-08-01T03:21:11;11.75;;;5.50;;
71572;SDS011;59408;51.032;9.410;2022-08-01T03:23:41;10.97;;;5.60;;
71572;SDS011;59408;51.032;9.410;2022-08-01T03:26:08;10.13;;;5.63;;
71572;SDS011;59408;51.032;9.410;2022-08-01T03:28:37;10.68;;;5.38;;
71572;SDS011;59408;51.032;9.410;2022-08-01T03:31:05;12.73;;;5.15;;
71572;SDS011;59408;51.032;9.410;2022-08-01T03:33:31;10.95;;;5.70;;
71572;SDS011;59408;51.032;9.410;2022-08-01T03:35:58;13.37;;;5.50;;
71572;SDS011;59408;51.032;9.410;2022-08-01T03:38:26;9.70;;;5.17;;
71572;SDS011;59408;51.032;9.410;2022-08-01T03:40:58;12.38;;;5.80;;
71572;SDS011;59408;51.032;9.410;2022-08-01T03:43:32;14.02;;;6.38;;
71572;SDS011;59408;51.032;9.410;2022-08-01T03:46:03;13.85;;;6.00;;
71572;SDS011;59408;51.032;9.410;2022-08-01T03:48:32;13.52;;;6.18;;
71572;SDS011;59408;51.032;9.410;2022-08-01T03:51:01;11.88;;;6.35;;
71572;SDS011;59408;51.032;9.410;2022-08-01T03:53:30;14.93;;;6.50;;
71572;SDS011;59408;51.032;9.410;2022-08-01T03:56:00;13.13;;;6.30;;
71572;SDS011;59408;51.032;9.410;2022-08-01T03:58:29;10.02;;;6.22;;
71572;SDS011;59408;51.032;9.410;2022-08-01T04:00:56;11.35;;;6.32;;
71572;SDS011;59408;51.032;9.410;2022-08-01T04:03:24;11.55;;;6.32;;
71572;SDS011;59408;51.032;9.410;2022-08-01T04:05:51;14.67;;;6.10;;
71572;SDS011;59408;51.032;9.410;2022-08-01T04:08:17;11.57;;;6.40;;
71572;SDS011;59408;51.032;9.410;2022-08-01T04:10:44;13.45;;;6.38;;
71572;SDS011;59408;51.032;9.410;2022-08-01T04:13:12;11.70;;;6.10;;
71572;SDS011;59408;51.032;9.410;2022-08-01T04:15:39;11.23;;;6.53;;
71572;SDS011;59408;51.032;9.410;2022-08-01T04:18:06;11.85;;;6.68;;
71572;SDS011;59408;51.032;9.410;2022-08-01T04:20:32;11.63;;;6.03;;
71572;SDS011;59408;51.032;9.410;2022-08-01T04:23:01;9.87;;;5.87;;
71572;SDS011;59408;51.032;9.410;2022-08-01T04:25:29;12.60;;;6.40;;
71572;SDS011;59408;51.032;9.410;2022-08-01T04:28:00;10.10;;;5.65;;
71572;SDS011;59408;51.032;9.410;2022-08-01T04:30:31;9.35;;;5.88;;
71572;SDS011;59408;51.032;9.410;2022-08-01T04:33:01;12.27;;;6.15;;
71572;SDS011;59408;51.032;9.410;2022-08-01T04:35:30;11.27;;;5.60;;
71572;SDS011;59408;51.032;9.410;2022-08-01T04:38:19;9.47;;;5.77;;
71572;SDS011;59408;51.032;9.410;2022-08-01T04:40:49;11.10;;;5.80;;
71572;SDS011;59408;51.032;9.410;2022-08-01T04:43:18;10.10;;;5.80;;
71572;SDS011;59408;51.032;9.410;2022-08-01T04:45:46;11.02;;;6.50;;
71572;SDS011;59408;51.032;9.410;2022-08-01T04:48:15;10.38;;;6.10;;
71572;SDS011;59408;51.032;9.410;2022-08-01T04:50:44;11.15;;;5.97;;
71572;SDS011;59408;51.032;9.410;2022-08-01T04:53:12;11.20;;;5.67;;
71572;SDS011;59408;51.032;9.410;2022-08-01T04:55:39;9.87;;;5.90;;
71572;SDS011;59408;51.032;9.410;2022-08-01T04:58:06;9.30;;;5.35;;
71572;SDS011;59408;51.032;9.410;2022-08-01T05:00:34;10.40;;;6.22;;
71572;SDS011;59408;51.032;9.410;2022-08-01T05:03:02;9.20;;;5.60;;
71572;SDS011;59408;51.032;9.410;2022-08-01T05:05:28;10.35;;;5.70;;
71572;SDS011;59408;51.032;9.410;2022-08-01T05:07:55;9.00;;;5.50;;
71572;SDS011;59408;51.032;9.410;2022-08-01T05:10:21;10.40;;;5.37;;
71572;SDS011;59408;51.032;9.410;2022-08-01T05:12:48;10.05;;;5.15;;
71572;SDS011;59408;51.032;9.410;2022-08-01T05:15:15;10.60;;;5.57;;
71572;SDS011;59408;51.032;9.410;2022-08-01T05:17:41;9.90;;;5.57;;
71572;SDS011;59408;51.032;9.410;2022-08-01T05:20:10;9.90;;;5.40;;
71572;SDS011;59408;51.032;9.410;2022-08-01T05:22:38;11.23;;;5.60;;
71572;SDS011;59408;51.032;9.410;2022-08-01T05:25:05;13.10;;;5.80;;
71572;SDS011;59408;51.032;9.410;2022-08-01T05:27:32;10.45;;;5.60;;
71572;SDS011;59408;51.032;9.410;2022-08-01T05:29:59;10.75;;;5.72;;
71572;SDS011;59408;51.032;9.410;2022-08-01T05:32:25;10.30;;;5.68;;
71572;SDS011;59408;51.032;9.410;2022-08-01T05:34:52;11.68;;;6.15;;
71572;SDS011;59408;51.032;9.410;2022-08-01T05:37:20;9.60;;;6.07;;
71572;SDS011;59408;51.032;9.410;2022-08-01T05:39:46;10.47;;;5.70;;
71572;SDS011;59408;51.032;9.410;2022-08-01T05:42:13;9.65;;;5.95;;
71572;SDS011;59408;51.032;9.410;2022-08-01T05:44:39;9.43;;;5.65;;
71572;SDS011;59408;51.032;9.410;2022-08-01T05:47:06;10.75;;;5.93;;
71572;SDS011;59408;51.032;9.410;2022-08-01T05:49:33;10.38;;;5.75;;
71572;SDS011;59408;51.032;9.410;2022-08-01T05:51:59;12.10;;;6.20;;
71572;SDS011;59408;51.032;9.410;2022-08-01T05:54:28;11.33;;;5.70;;
71572;SDS011;59408;51.032;9.410;2022-08-01T05:56:54;9.93;;;5.30;;
71572;SDS011;59408;51.032;9.410;2022-08-01T05:59:21;10.68;;;5.60;;
71572;SDS011;59408;51.032;9.410;2022-08-01T06:01:47;11.82;;;5.10;;
71572;SDS011;59408;51.032;9.410;2022-08-01T06:04:14;9.52;;;5.75;;
71572;SDS011;59408;51.032;9.410;2022-08-01T06:06:40;9.07;;;5.17;;
71572;SDS011;59408;51.032;9.410;2022-08-01T06:09:07;10.23;;;5.60;;
71572;SDS011;59408;51.032;9.410;2022-08-01T06:11:35;9.52;;;5.50;;
71572;SDS011;59408;51.032;9.410;2022-08-01T06:14:01;7.60;;;4.03;;
71572;SDS011;59408;51.032;9.410;2022-08-01T06:16:28;6.22;;;3.17;;
71572;SDS011;59408;51.032;9.410;2022-08-01T06:18:55;6.63;;;3.63;;
71572;SDS011;59408;51.032;9.410;2022-08-01T06:21:22;7.50;;;3.23;;
71572;SDS011;59408;51.032;9.410;2022-08-01T06:23:48;7.20;;;3.60;;
71572;SDS011;59408;51.032;9.410;2022-08-01T06:26:17;7.10;;;3.58;;
71572;SDS011;59408;51.032;9.410;2022-08-01T06:28:45;9.35;;;4.22;;
71572;SDS011;59408;51.032;9.410;2022-08-01T06:31:12;7.85;;;3.97;;
71572;SDS011;59408;51.032;9.410;2022-08-01T06:33:38;8.80;;;4.15;;
71572;SDS011;59408;51.032;9.410;2022-08-01T06:36:05;8.30;;;3.73;;
71572;SDS011;59408;51.032;9.410;2022-08-01T06:38:32;6.23;;;3.43;;
71572;SDS011;59408;51.032;9.410;2022-08-01T06:40:58;7.60;;;3.60;;
71572;SDS011;59408;51.032;9.410;2022-08-01T06:43:25;6.78;;;3.10;;
71572;SDS011;59408;51.032;9.410;2022-08-01T06:45:54;6.72;;;3.65;;
71572;SDS011;59408;51.032;9.410;2022-08-01T06:48:21;7.60;;;3.92;;
71572;SDS011;59408;51.032;9.410;2022-08-01T06:50:47;6.60;;;3.40;;
71572;SDS011;59408;51.032;9.410;2022-08-01T06:53:14;6.90;;;3.45;;
71572;SDS011;59408;51.032;9.410;2022-08-01T06:55:40;6.78;;;3.30;;
71572;SDS011;59408;51.032;9.410;2022-08-01T06:58:07;6.13;;;3.20;;
71572;SDS011;59408;51.032;9.410;2022-08-01T07:00:34;6.05;;;3.28;;
71572;SDS011;59408;51.032;9.410;2022-08-01T07:03:02;6.40;;;3.67;;
71572;SDS011;59408;51.032;9.410;2022-08-01T07:05:28;7.20;;;3.30;;
71572;SDS011;59408;51.032;9.410;2022-08-01T07:07:55;6.85;;;3.50;;
71572;SDS011;59408;51.032;9.410;2022-08-01T07:10:22;6.00;;;3.22;;
71572;SDS011;59408;51.032;9.410;2022-08-01T07:12:48;6.75;;;3.70;;
71572;SDS011;59408;51.032;9.410;2022-08-01T07:15:15;8.70;;;3.37;;
71572;SDS011;59408;51.032;9.410;2022-08-01T07:17:42;7.83;;;3.23;;
71572;SDS011;59408;51.032;9.410;2022-08-01T07:20:11;8.00;;;3.35;;
71572;SDS011;59408;51.032;9.410;2022-08-01T07:22:41;7.22;;;3.17;;
71572;SDS011;59408;51.032;9.410;2022-08-01T07:25:13;6.32;;;3.45;;
71572;SDS011;59408;51.032;9.410;2022-08-01T07:27:40;8.07;;;3.72;;
71572;SDS011;59408;51.032;9.410;2022-08-01T07:30:07;6.27;;;3.10;;
71572;SDS011;59408;51.032;9.410;2022-08-01T07:32:34;7.00;;;3.15;;
71572;SDS011;59408;51.032;9.410;2022-08-01T07:35:00;7.03;;;3.20;;
71572;SDS011;59408;51.032;9.410;2022-08-01T07:37:29;5.88;;;2.90;;
71572;SDS011;59408;51.032;9.410;2022-08-01T07:40:15;6.63;;;3.30;;
71572;SDS011;59408;51.032;9.410;2022-08-01T07:42:43;6.43;;;3.07;;
71572;SDS011;59408;51.032;9.410;2022-08-01T07:45:10;6.97;;;2.90;;
71572;SDS011;59408;51.032;9.410;2022-08-01T07:47:37;7.88;;;3.08;;
71572;SDS011;59408;51.032;9.410;2022-08-01T07:50:04;6.30;;;3.22;;
71572;SDS011;59408;51.032;9.410;2022-08-01T07:52:33;8.38;;;3.30;;
71572;SDS011;59408;51.032;9.410;2022-08-01T07:54:59;7.55;;;3.15;;
71572;SDS011;59408;51.032;9.410;2022-08-01T07:57:26;7.00;;;3.13;;
71572;SDS011;59408;51.032;9.410;2022-08-01T07:59:53;5.97;;;2.90;;
71572;SDS011;59408;51.032;9.410;2022-08-01T08:02:19;6.32;;;3.30;;
71572;SDS011;59408;51.032;9.410;2022-08-01T08:04:46;6.85;;;2.60;;
71572;SDS011;59408;51.032;9.410;2022-08-01T08:07:14;6.28;;;2.78;;
71572;SDS011;59408;51.032;9.410;2022-08-01T08:09:42;5.50;;;2.60;;
71572;SDS011;59408;51.032;9.410;2022-08-01T08:12:09;6.23;;;2.90;;
71572;SDS011;59408;51.032;9.410;2022-08-01T08:14:36;6.68;;;2.97;;
71572;SDS011;59408;51.032;9.410;2022-08-01T08:17:03;6.40;;;3.42;;
71572;SDS011;59408;51.032;9.410;2022-08-01T08:19:30;6.57;;;3.35;;
71572;SDS011;59408;51.032;9.410;2022-08-01T08:22:04;6.47;;;3.78;;
71572;SDS011;59408;51.032;9.410;2022-08-01T08:24:31;6.47;;;3.00;;
71572;SDS011;59408;51.032;9.410;2022-08-01T08:26:59;6.68;;;3.20;;
71572;SDS011;59408;51.032;9.410;2022-08-01T08:29:27;6.10;;;3.40;;
71572;SDS011;59408;51.032;9.410;2022-08-01T08:31:55;7.32;;;3.50;;
71572;SDS011;59408;51.032;9.410;2022-08-01T08:34:23;6.90;;;3.60;;
71572;SDS011;59408;51.032;9.410;2022-08-01T08:36:50;7.77;;;3.80;;
71572;SDS011;59408;51.032;9.410;2022-08-01T08:39:17;7.13;;;3.55;;
71572;SDS011;59408;51.032;9.410;2022-08-01T08:41:45;6.90;;;3.60;;
71572;SDS011;59408;51.032;9.410;2022-08-01T08:44:16;8.43;;;3.90;;
71572;SDS011;59408;51.032;9.410;2022-08-01T08:46:45;7.57;;;3.95;;
71572;SDS011;59408;51.032;9.410;2022-08-01T08:49:15;6.57;;;3.60;;
71572;SDS011;59408;51.032;9.410;2022-08-01T08:51:43;7.37;;;3.33;;
71572;SDS011;59408;51.032;9.410;2022-08-01T08:54:13;6.70;;;3.38;;
71572;SDS011;59408;51.032;9.410;2022-08-01T08:56:41;6.15;;;3.40;;
71572;SDS011;59408;51.032;9.410;2022-08-01T08:59:08;7.05;;;4.03;;
71572;SDS011;59408;51.032;9.410;2022-08-01T09:01:38;6.65;;;3.78;;
71572;SDS011;59408;51.032;9.410;2022-08-01T09:04:05;7.10;;;4.30;;
71572;SDS011;59408;51.032;9.410;2022-08-01T09:06:32;7.57;;;4.05;;
71572;SDS011;59408;51.032;9.410;2022-08-01T09:08:59;7.70;;;4.47;;
71572;SDS011;59408;51.032;9.410;2022-08-01T09:11:25;8.18;;;4.50;;
71572;SDS011;59408;51.032;9.410;2022-08-01T09:14:05;7.38;;;4.38;;
71572;SDS011;59408;51.032;9.410;2022-08-01T09:16:34;8.13;;;3.97;;
71572;SDS011;59408;51.032;9.410;2022-08-01T09:19:11;8.30;;;4.28;;
71572;SDS011;59408;51.032;9.410;2022-08-01T09:21:56;7.22;;;4.15;;
71572;SDS011;59408;51.032;9.410;2022-08-01T09:24:25;9.32;;;4.38;;
71572;SDS011;59408;51.032;9.410;2022-08-01T09:26:56;6.93;;;4.15;;
71572;SDS011;59408;51.032;9.410;2022-08-01T09:29:25;6.80;;;3.90;;
71572;SDS011;59408;51.032;9.410;2022-08-01T09:32:04;7.65;;;4.40;;
71572;SDS011;59408;51.032;9.410;2022-08-01T09:34:33;6.80;;;4.10;;
71572;SDS011;59408;51.032;9.410;2022-08-01T09:37:00;7.53;;;4.35;;
71572;SDS011;59408;51.032;9.410;2022-08-01T09:39:28;8.27;;;4.20;;
71572;SDS011;59408;51.032;9.410;2022-08-01T09:41:56;7.20;;;4.40;;
71572;SDS011;59408;51.032;9.410;2022-08-01T09:44:36;7.13;;;4.40;;
71572;SDS011;59408;51.032;9.410;2022-08-01T09:47:09;7.15;;;3.95;;
71572;SDS011;59408;51.032;9.410;2022-08-01T09:49:42;6.53;;;4.15;;
71572;SDS011;59408;51.032;9.410;2022-08-01T09:52:17;7.30;;;4.15;;
71572;SDS011;59408;51.032;9.410;2022-08-01T09:54:52;6.53;;;4.00;;
71572;SDS011;59408;51.032;9.410;2022-08-01T09:57:20;7.85;;;4.10;;
71572;SDS011;59408;51.032;9.410;2022-08-01T09:59:47;9.02;;;3.78;;
71572;SDS011;59408;51.032;9.410;2022-08-01T10:02:26;6.53;;;3.83;;
71572;SDS011;59408;51.032;9.410;2022-08-01T10:08:03;6.60;;;3.90;;
71572;SDS011;59408;51.032;9.410;2022-08-01T10:10:34;7.05;;;4.15;;
71572;SDS011;59408;51.032;9.410;2022-08-01T10:13:02;6.50;;;4.32;;
71572;SDS011;59408;51.032;9.410;2022-08-01T10:15:30;7.65;;;4.13;;
71572;SDS011;59408;51.032;9.410;2022-08-01T10:18:18;6.55;;;4.10;;
71572;SDS011;59408;51.032;9.410;2022-08-01T10:20:53;9.27;;;3.90;;
71572;SDS011;59408;51.032;9.410;2022-08-01T10:23:23;6.90;;;4.15;;
71572;SDS011;59408;51.032;9.410;2022-08-01T10:26:06;6.15;;;3.63;;
71572;SDS011;59408;51.032;9.410;2022-08-01T10:28:34;6.63;;;3.92;;
71572;SDS011;59408;51.032;9.410;2022-08-01T10:31:04;5.85;;;3.30;;
71572;SDS011;59408;51.032;9.410;2022-08-01T10:33:40;5.97;;;3.50;;
71572;SDS011;59408;51.032;9.410;2022-08-01T10:36:20;6.55;;;3.75;;
71572;SDS011;59408;51.032;9.410;2022-08-01T10:38:48;8.23;;;3.97;;
71572;SDS011;59408;51.032;9.410;2022-08-01T10:41:15;5.85;;;3.78;;
71572;SDS011;59408;51.032;9.410;2022-08-01T10:43:44;6.85;;;4.20;;
71572;SDS011;59408;51.032;9.410;2022-08-01T10:46:12;6.47;;;4.00;;
71572;SDS011;59408;51.032;9.410;2022-08-01T10:48:40;6.45;;;3.97;;
71572;SDS011;59408;51.032;9.410;2022-08-01T10:51:13;6.80;;;4.10;;
71572;SDS011;59408;51.032;9.410;2022-08-01T10:53:48;6.97;;;3.88;;
71572;SDS011;59408;51.032;9.410;2022-08-01T10:56:19;6.25;;;3.70;;
71572;SDS011;59408;51.032;9.410;2022-08-01T10:58:55;6.90;;;3.97;;
71572;SDS011;59408;51.032;9.410;2022-08-01T11:01:32;6.95;;;3.80;;
71572;SDS011;59408;51.032;9.410;2022-08-01T11:04:05;6.35;;;4.00;;
71572;SDS011;59408;51.032;9.410;2022-08-01T11:09:37;6.45;;;4.13;;
71572;SDS011;59408;51.032;9.410;2022-08-01T11:12:10;7.13;;;4.23;;
71572;SDS011;59408;51.032;9.410;2022-08-01T11:17:54;6.40;;;4.38;;
71572;SDS011;59408;51.032;9.410;2022-08-01T11:20:22;6.25;;;3.70;;
71572;SDS011;59408;51.032;9.410;2022-08-01T11:26:07;6.27;;;3.90;;
71572;SDS011;59408;51.032;9.410;2022-08-01T11:28:39;5.93;;;3.90;;
71572;SDS011;59408;51.032;9.410;2022-08-01T11:31:28;6.35;;;4.28;;
71572;SDS011;59408;51.032;9.410;2022-08-01T11:34:03;6.28;;;3.90;;
71572;SDS011;59408;51.032;9.410;2022-08-01T11:36:29;6.80;;;4.32;;
71572;SDS011;59408;51.032;9.410;2022-08-01T11:39:16;6.60;;;4.40;;
71572;SDS011;59408;51.032;9.410;2022-08-01T11:41:47;8.52;;;4.30;;
71572;SDS011;59408;51.032;9.410;2022-08-01T11:44:15;6.70;;;4.50;;
71572;SDS011;59408;51.032;9.410;2022-08-01T11:46:47;6.90;;;4.38;;
71572;SDS011;59408;51.032;9.410;2022-08-01T11:49:28;6.97;;;4.05;;
71572;SDS011;59408;51.032;9.410;2022-08-01T11:52:01;7.50;;;4.57;;
71572;SDS011;59408;51.032;9.410;2022-08-01T11:54:31;8.25;;;4.50;;
71572;SDS011;59408;51.032;9.410;2022-08-01T11:57:03;6.45;;;4.50;;
71572;SDS011;59408;51.032;9.410;2022-08-01T11:59:38;6.95;;;4.50;;
71572;SDS011;59408;51.032;9.410;2022-08-01T12:02:27;7.47;;;4.25;;
71572;SDS011;59408;51.032;9.410;2022-08-01T12:04:56;6.77;;;4.67;;
71572;SDS011;59408;51.032;9.410;2022-08-01T12:07:25;6.70;;;4.57;;
71572;SDS011;59408;51.032;9.410;2022-08-01T12:09:57;7.18;;;4.80;;
71572;SDS011;59408;51.032;9.410;2022-08-01T12:12:27;6.50;;;4.70;;
71572;SDS011;59408;51.032;9.410;2022-08-01T12:14:55;6.78;;;4.57;;
71572;SDS011;59408;51.032;9.410;2022-08-01T12:17:29;6.40;;;4.07;;
71572;SDS011;59408;51.032;9.410;2022-08-01T12:19:58;6.20;;;3.90;;
71572;SDS011;59408;51.032;9.410;2022-08-01T12:22:24;6.22;;;4.28;;
71572;SDS011;59408;51.032;9.410;2022-08-01T12:24:51;6.75;;;4.20;;
71572;SDS011;59408;51.032;9.410;2022-08-01T12:27:26;6.60;;;4.50;;
71572;SDS011;59408;51.032;9.410;2022-08-01T12:29:55;6.80;;;4.00;;
71572;SDS011;59408;51.032;9.410;2022-08-01T12:32:23;7.60;;;4.47;;
71572;SDS011;59408;51.032;9.410;2022-08-01T12:35:00;6.00;;;3.95;;
71572;SDS011;59408;51.032;9.410;2022-08-01T12:37:28;5.82;;;3.50;;
71572;SDS011;59408;51.032;9.410;2022-08-01T12:39:55;6.15;;;3.70;;
71572;SDS011;59408;51.032;9.410;2022-08-01T12:42:22;6.93;;;4.17;;
71572;SDS011;59408;51.032;9.410;2022-08-01T12:44:51;6.47;;;3.95;;
71572;SDS011;59408;51.032;9.410;2022-08-01T12:47:19;7.75;;;4.18;;
71572;SDS011;59408;51.032;9.410;2022-08-01T12:49:47;5.47;;;3.53;;
71572;SDS011;59408;51.032;9.410;2022-08-01T12:52:14;6.85;;;4.05;;
71572;SDS011;59408;51.032;9.410;2022-08-01T12:55:00;6.33;;;3.63;;
71572;SDS011;59408;51.032;9.410;2022-08-01T12:57:35;5.60;;;3.70;;
71572;SDS011;59408;51.032;9.410;2022-08-01T13:00:08;5.57;;;3.42;;
71572;SDS011;59408;51.032;9.410;2022-08-01T13:02:40;6.05;;;3.90;;
71572;SDS011;59408;51.032;9.410;2022-08-01T13:05:07;6.75;;;3.72;;
71572;SDS011;59408;51.032;9.410;2022-08-01T13:07:36;7.90;;;3.80;;
71572;SDS011;59408;51.032;9.410;2022-08-01T13:10:11;6.20;;;4.07;;
71572;SDS011;59408;51.032;9.410;2022-08-01T13:12:39;6.20;;;3.78;;
71572;SDS011;59408;51.032;9.410;2022-08-01T13:15:17;5.95;;;3.20;;
71572;SDS011;59408;51.032;9.410;2022-08-01T13:17:50;5.03;;;2.90;;
71572;SDS011;59408;51.032;9.410;2022-08-01T13:20:24;4.87;;;2.67;;
71572;SDS011;59408;51.032;9.410;2022-08-01T13:22:52;5.85;;;3.13;;
71572;SDS011;59408;51.032;9.410;2022-08-01T13:25:19;4.82;;;2.70;;
71572;SDS011;59408;51.032;9.410;2022-08-01T13:27:48;5.03;;;2.65;;
71572;SDS011;59408;51.032;9.410;2022-08-01T13:30:21;5.90;;;3.08;;
71572;SDS011;59408;51.032;9.410;2022-08-01T13:32:56;6.17;;;3.13;;
71572;SDS011;59408;51.032;9.410;2022-08-01T13:35:24;5.40;;;2.45;;
71572;SDS011;59408;51.032;9.410;2022-08-01T13:37:50;4.40;;;2.00;;
71572;SDS011;59408;51.032;9.410;2022-08-01T13:40:22;3.97;;;1.90;;
71572;SDS011;59408;51.032;9.410;2022-08-01T13:42:50;4.00;;;1.88;;
71572;SDS011;59408;51.032;9.410;2022-08-01T13:45:16;6.50;;;1.87;;
71572;SDS011;59408;51.032;9.410;2022-08-01T13:47:49;3.70;;;1.52;;
71572;SDS011;59408;51.032;9.410;2022-08-01T13:50:35;3.90;;;1.77;;
71572;SDS011;59408;51.032;9.410;2022-08-01T13:53:02;4.25;;;1.90;;
71572;SDS011;59408;51.032;9.410;2022-08-01T13:55:28;4.88;;;2.30;;
71572;SDS011;59408;51.032;9.410;2022-08-01T13:58:00;5.13;;;2.20;;
71572;SDS011;59408;51.032;9.410;2022-08-01T14:00:27;5.63;;;2.35;;
71572;SDS011;59408;51.032;9.410;2022-08-01T14:02:55;4.97;;;2.50;;
71572;SDS011;59408;51.032;9.410;2022-08-01T14:05:21;4.60;;;2.33;;
71572;SDS011;59408;51.032;9.410;2022-08-01T14:07:48;5.20;;;2.40;;
71572;SDS011;59408;51.032;9.410;2022-08-01T14:10:14;4.90;;;2.60;;
71572;SDS011;59408;51.032;9.410;2022-08-01T14:12:45;5.20;;;2.80;;
71572;SDS011;59408;51.032;9.410;2022-08-01T14:15:13;5.70;;;2.90;;
71572;SDS011;59408;51.032;9.410;2022-08-01T14:17:44;8.05;;;3.20;;
71572;SDS011;59408;51.032;9.410;2022-08-01T14:20:14;5.35;;;3.22;;
71572;SDS011;59408;51.032;9.410;2022-08-01T14:22:41;6.37;;;3.20;;
71572;SDS011;59408;51.032;9.410;2022-08-01T14:25:08;6.07;;;3.35;;
71572;SDS011;59408;51.032;9.410;2022-08-01T14:27:35;6.10;;;3.47;;
71572;SDS011;59408;51.032;9.410;2022-08-01T14:30:01;6.32;;;3.70;;
71572;SDS011;59408;51.032;9.410;2022-08-01T14:32:29;6.78;;;3.90;;
71572;SDS011;59408;51.032;9.410;2022-08-01T14:34:56;5.20;;;3.27;;
71572;SDS011;59408;51.032;9.410;2022-08-01T14:37:24;5.60;;;3.30;;
71572;SDS011;59408;51.032;9.410;2022-08-01T14:39:56;7.82;;;3.70;;
71572;SDS011;59408;51.032;9.410;2022-08-01T14:42:24;5.90;;;3.30;;
71572;SDS011;59408;51.032;9.410;2022-08-01T14:44:50;5.43;;;3.40;;
71572;SDS011;59408;51.032;9.410;2022-08-01T14:47:17;5.63;;;2.97;;
71572;SDS011;59408;51.032;9.410;2022-08-01T14:49:47;5.60;;;2.92;;
71572;SDS011;59408;51.032;9.410;2022-08-01T14:52:14;5.45;;;3.47;;
71572;SDS011;59408;51.032;9.410;2022-08-01T14:54:42;5.90;;;3.60;;
71572;SDS011;59408;51.032;9.410;2022-08-01T14:57:09;5.60;;;3.50;;
71572;SDS011;59408;51.032;9.410;2022-08-01T14:59:35;6.90;;;3.60;;
71572;SDS011;59408;51.032;9.410;2022-08-01T15:02:02;5.65;;;3.50;;
71572;SDS011;59408;51.032;9.410;2022-08-01T15:04:29;5.80;;;3.97;;
71572;SDS011;59408;51.032;9.410;2022-08-01T15:06:56;7.25;;;3.50;;
71572;SDS011;59408;51.032;9.410;2022-08-01T15:09:22;5.95;;;3.78;;
71572;SDS011;59408;51.032;9.410;2022-08-01T15:11:50;6.37;;;3.40;;